createdAt,value
2018-12-07T00:00:34.204Z,100511.86
2018-12-07T00:04:57.987Z,100502.84
2018-12-07T00:13:19.191Z,100490.73
2018-12-07T00:17:24.032Z,100495.10
2018-12-07T00:21:28.984Z,100493.63
2018-12-07T00:25:33.856Z,100479.92
2018-12-07T00:29:39.025Z,100473.77
2018-12-07T00:33:43.914Z,100476.20
2018-12-07T00:37:48.809Z,100473.59
2018-12-07T00:41:53.687Z,100469.27
2018-12-07T00:45:58.556Z,100473.30
2018-12-07T00:50:03.416Z,100484.80
2018-12-07T00:54:08.279Z,100477.16
2018-12-07T00:58:13.094Z,100476.12
2018-12-07T01:02:17.953Z,100479.26
2018-12-07T01:06:22.814Z,100477.95
2018-12-07T01:10:27.703Z,100472.64
2018-12-07T01:14:32.594Z,100456.75
2018-12-07T01:18:37.487Z,100449.88
2018-12-07T01:22:42.388Z,100451.85
2018-12-07T01:26:47.647Z,100441.58
2018-12-07T01:30:52.505Z,100450.47
2018-12-07T01:34:57.460Z,100456.62
2018-12-07T01:43:33.894Z,100467.66
2018-12-07T01:47:57.390Z,100455.88
2018-12-07T01:52:02.273Z,100456.98
2018-12-07T01:56:07.169Z,100442.72
2018-12-07T02:00:12.152Z,100449.69
2018-12-07T02:04:29.214Z,100446.07
2018-12-07T02:08:23.878Z,100440.77
2018-12-07T02:12:28.778Z,100417.42
2018-12-07T02:16:33.676Z,100404.13
2018-12-07T02:20:38.605Z,100405.37
2018-12-07T02:24:43.483Z,100403.61
2018-12-07T02:28:48.413Z,100397.10
2018-12-07T02:32:53.357Z,100383.66
2018-12-07T02:36:58.241Z,100389.14
2018-12-07T02:41:03.083Z,100385.11
2018-12-07T02:45:07.960Z,100378.73
2018-12-07T02:49:12.781Z,100376.69
2018-12-07T02:53:17.725Z,100386.31
2018-12-07T02:57:22.566Z,100376.55
2018-12-07T03:01:27.437Z,100357.87
2018-12-07T03:05:32.320Z,100351.42
2018-12-07T03:09:37.772Z,100360.17
2018-12-07T03:13:42.650Z,100364.51
2018-12-07T03:17:47.566Z,100358.29
2018-12-07T03:21:52.385Z,100342.48
2018-12-07T03:25:57.228Z,100341.92
2018-12-07T03:30:02.093Z,100342.64
2018-12-07T03:34:06.975Z,100339.09
2018-12-07T03:38:11.825Z,100337.80
2018-12-07T03:42:23.528Z,100340.17
2018-12-07T03:46:28.389Z,100333.43
2018-12-07T03:50:33.315Z,100325.45
2018-12-07T03:54:38.187Z,100341.59
2018-12-07T03:58:43.071Z,100344.06
2018-12-07T04:02:48.005Z,100338.92
2018-12-07T04:06:52.985Z,100341.01
2018-12-07T04:10:57.852Z,100340.39
2018-12-07T04:15:02.727Z,100332.58
2018-12-07T04:19:07.605Z,100317.87
2018-12-07T04:23:12.541Z,100330.47
2018-12-07T04:27:17.357Z,100311.75
2018-12-07T04:31:22.245Z,100311.87
2018-12-07T04:35:27.146Z,100296.91
2018-12-07T04:39:31.958Z,100293.88
2018-12-07T04:43:36.855Z,100290.92
2018-12-07T04:47:41.749Z,100287.63
2018-12-07T04:51:46.652Z,100272.94
2018-12-07T04:55:51.470Z,100267.73
2018-12-07T05:00:15.221Z,100281.51
2018-12-07T05:04:20.125Z,100274.61
2018-12-07T05:08:24.942Z,100263.58
2018-12-07T05:12:29.838Z,100251.65
2018-12-07T05:16:34.687Z,100263.23
2018-12-07T05:20:39.552Z,100241.11
2018-12-07T05:24:44.443Z,100247.68
2018-12-07T05:28:49.300Z,100249.41
2018-12-07T05:32:54.177Z,100243.35
2018-12-07T05:36:59.439Z,100231.76
2018-12-07T05:41:04.320Z,100209.63
2018-12-07T05:45:09.235Z,100203.18
2018-12-07T05:49:14.389Z,100210.93
2018-12-07T05:53:19.289Z,100210.11
2018-12-07T05:57:24.169Z,100197.73
2018-12-07T06:01:29.026Z,100206.60
2018-12-07T06:05:33.965Z,100200.78
2018-12-07T06:09:38.841Z,100195.39
2018-12-07T06:13:44.071Z,100201.75
2018-12-07T06:17:48.950Z,100211.27
2018-12-07T06:21:53.830Z,100202.15
2018-12-07T06:25:58.675Z,100195.19
2018-12-07T06:30:03.606Z,100188.19
2018-12-07T06:34:08.396Z,100181.56
2018-12-07T06:38:13.284Z,100176.72
2018-12-07T06:42:18.159Z,100183.23
2018-12-07T06:46:23.002Z,100191.98
2018-12-07T06:50:27.870Z,100181.23
2018-12-07T06:54:51.559Z,100167.84
2018-12-07T06:58:56.516Z,100174.81
2018-12-07T07:03:01.377Z,100174.92
2018-12-07T07:07:06.268Z,100184.67
2018-12-07T07:11:11.196Z,100182.13
2018-12-07T07:15:16.106Z,100175.98
2018-12-07T07:19:20.953Z,100165.68
2018-12-07T07:23:25.835Z,100155.07
2018-12-07T07:27:30.723Z,100137.34
2018-12-07T07:31:35.567Z,100141.14
2018-12-07T07:35:40.425Z,100153.34
2018-12-07T07:39:45.707Z,100157.98
2018-12-07T07:43:50.571Z,100162.94
2018-12-07T07:47:55.439Z,100169.20
2018-12-07T07:52:00.293Z,100158.41
2018-12-07T07:56:05.239Z,100138.51
2018-12-07T08:00:10.217Z,100157.56
2018-12-07T08:04:15.124Z,100148.93
2018-12-07T08:08:19.980Z,100143.60
2018-12-07T08:12:24.925Z,100137.45
2018-12-07T08:16:30.345Z,100139.33
2018-12-07T08:21:15.445Z,100138.25
2018-12-07T08:25:20.604Z,100137.85
2018-12-07T08:29:25.474Z,100156.66
2018-12-07T08:33:30.578Z,100134.12
2018-12-07T08:37:35.632Z,100137.67
2018-12-07T08:41:40.532Z,100145.11
2018-12-07T08:45:45.453Z,100135.99
2018-12-07T08:50:08.918Z,100137.89
2018-12-07T08:54:13.828Z,100137.14
2018-12-07T08:58:18.818Z,100132.41
2018-12-07T09:02:42.519Z,100143.51
2018-12-07T09:06:47.432Z,100133.74
2018-12-07T09:15:03.361Z,100127.06
2018-12-07T09:19:08.316Z,100112.45
2018-12-07T09:23:13.208Z,100104.80
2018-12-07T09:27:18.105Z,100098.93
2018-12-07T09:31:23.005Z,100095.70
2018-12-07T09:35:27.884Z,100082.39
2018-12-07T09:39:32.698Z,100067.75
2018-12-07T09:43:37.574Z,100060.63
2018-12-07T09:47:42.528Z,100053.53
2018-12-07T09:51:47.387Z,100042.41
2018-12-07T09:55:52.469Z,100039.23
2018-12-07T09:59:57.337Z,100025.14
2018-12-07T10:04:02.270Z,100015.41
2018-12-07T10:08:07.214Z,100001.31
2018-12-07T10:12:12.223Z,100002.54
2018-12-07T10:16:17.097Z,99990.60
2018-12-07T10:20:22.346Z,99981.71
2018-12-07T10:24:27.511Z,99975.86
2018-12-07T10:28:32.417Z,99971.27
2018-12-07T10:32:37.247Z,99956.73
2018-12-07T10:36:42.145Z,99950.83
2018-12-07T10:40:47.007Z,99943.53
2018-12-07T10:44:51.868Z,99936.31
2018-12-07T10:48:56.766Z,99929.12
2018-12-07T10:53:01.928Z,99932.20
2018-12-07T10:57:06.809Z,99929.27
2018-12-07T11:01:30.376Z,99920.61
2018-12-07T11:05:53.890Z,99918.90
2018-12-07T11:10:17.419Z,99904.17
2018-12-07T11:14:40.909Z,99900.35
2018-12-07T11:19:04.452Z,99895.19
2018-12-07T11:23:28.006Z,99896.52
2018-12-07T11:27:51.594Z,99890.86
2018-12-07T11:32:15.124Z,99879.14
2018-12-07T11:36:19.977Z,99870.88
2018-12-07T11:40:24.893Z,99863.50
2018-12-07T11:44:29.855Z,99863.13
2018-12-07T11:48:34.780Z,99847.89
2018-12-07T11:52:39.834Z,99839.60
2018-12-07T11:56:45.063Z,99833.12
2018-12-07T12:00:49.915Z,99832.72
2018-12-07T12:05:34.217Z,99824.92
2018-12-07T12:09:39.529Z,99825.87
2018-12-07T12:13:44.334Z,99815.06
2018-12-07T12:17:49.259Z,99801.61
2018-12-07T12:21:54.141Z,99800.30
2018-12-07T12:25:59.031Z,99797.71
2018-12-07T12:30:03.951Z,99800.88
2018-12-07T12:34:08.864Z,99784.67
2018-12-07T12:38:13.771Z,99777.28
2018-12-07T12:46:29.571Z,99762.52
2018-12-07T12:50:53.151Z,99767.42
2018-12-07T12:54:58.029Z,99757.84
2018-12-07T12:59:02.926Z,99751.75
2018-12-07T13:03:07.805Z,99749.14
2018-12-07T13:07:12.697Z,99746.10
2018-12-07T13:11:17.599Z,99741.74
2018-12-07T13:15:22.950Z,99739.02
2018-12-07T13:19:27.788Z,99742.02
2018-12-07T13:23:36.199Z,99734.17
2018-12-07T13:27:41.355Z,99718.02
2018-12-07T13:31:46.228Z,99708.83
2018-12-07T13:35:51.140Z,99698.30
2018-12-07T13:39:56.098Z,99693.91
2018-12-07T13:48:11.728Z,99689.52
2018-12-07T13:52:16.696Z,99681.61
2018-12-07T13:56:21.838Z,99674.99
2018-12-07T14:00:26.957Z,99667.98
2018-12-07T14:04:32.260Z,99667.50
2018-12-07T14:08:37.167Z,99679.72
2018-12-07T14:12:42.071Z,99662.24
2018-12-07T14:16:46.920Z,99675.77
2018-12-07T14:20:51.797Z,99664.39
2018-12-07T14:24:56.976Z,99647.77
2018-12-07T14:29:01.984Z,99645.99
2018-12-07T14:33:06.945Z,99645.22
2018-12-07T14:37:11.798Z,99636.06
2018-12-07T14:41:16.758Z,99626.89
2018-12-07T14:45:21.733Z,99616.83
2018-12-07T14:49:26.835Z,99603.73
2018-12-07T14:53:32.006Z,99606.31
2018-12-07T14:57:38.574Z,99592.28
2018-12-07T15:01:43.721Z,99593.97
2018-12-07T15:05:48.856Z,99580.41
2018-12-07T15:09:53.834Z,99589.52
2018-12-07T15:13:58.785Z,99576.89
2018-12-07T15:18:03.667Z,99560.30
2018-12-07T15:22:08.714Z,99561.60
2018-12-07T15:26:13.736Z,99555.47
2018-12-07T15:30:18.692Z,99542.41
2018-12-07T15:34:23.814Z,99532.81
2018-12-07T15:38:28.698Z,99524.57
2018-12-07T15:42:33.728Z,99522.77
2018-12-07T15:46:38.542Z,99506.50
2018-12-07T15:50:43.627Z,99516.91
2018-12-07T15:54:48.613Z,99518.63
2018-12-07T15:58:53.564Z,99513.41
2018-12-07T16:02:58.508Z,99496.41
2018-12-07T16:07:03.592Z,99486.36
2018-12-07T16:11:08.774Z,99478.09
2018-12-07T16:15:13.826Z,99476.74
2018-12-07T16:19:18.718Z,99465.39
2018-12-07T16:23:24.423Z,99457.42
2018-12-07T16:27:30.604Z,99448.22
2018-12-07T16:31:35.526Z,99443.72
2018-12-07T16:35:40.476Z,99434.45
2018-12-07T16:39:45.414Z,99428.30
2018-12-07T16:43:50.302Z,99427.41
2018-12-07T16:47:55.238Z,99428.23
2018-12-07T16:52:00.209Z,99429.11
2018-12-07T16:56:05.198Z,99426.55
2018-12-07T17:00:10.466Z,99426.49
2018-12-07T17:04:15.349Z,99424.24
2018-12-07T17:08:20.378Z,99413.30
2018-12-07T17:12:25.458Z,99414.99
2018-12-07T17:16:30.442Z,99400.59
2018-12-07T17:20:35.411Z,99397.94
2018-12-07T17:24:40.632Z,99393.98
2018-12-07T17:28:45.727Z,99379.84
2018-12-07T17:32:50.647Z,99370.63
2018-12-07T17:36:55.717Z,99372.77
2018-12-07T17:41:00.548Z,99368.73
2018-12-07T17:45:05.765Z,99367.79
2018-12-07T17:49:10.891Z,99362.10
2018-12-07T17:53:15.811Z,99347.25
2018-12-07T17:57:20.724Z,99329.79
2018-12-07T18:01:25.732Z,99327.97
2018-12-07T18:05:30.542Z,99329.20
2018-12-07T18:09:35.616Z,99320.00
2018-12-07T18:13:40.582Z,99321.75
2018-12-07T18:17:45.497Z,99322.62
2018-12-07T18:21:50.731Z,99312.20
2018-12-07T18:25:55.534Z,99300.86
2018-12-07T18:30:00.575Z,99315.16
2018-12-07T18:34:05.682Z,99298.30
2018-12-07T18:38:10.795Z,99301.45
2018-12-07T18:42:17.285Z,99295.84
2018-12-07T18:46:22.230Z,99282.83
2018-12-07T18:50:28.517Z,99262.77
2018-12-07T18:54:33.886Z,99276.67
2018-12-07T18:58:38.900Z,99266.28
2018-12-07T19:02:43.771Z,99259.33
2018-12-07T19:06:48.992Z,99253.27
2018-12-07T19:10:53.812Z,99242.36
2018-12-07T19:15:19.338Z,99242.81
2018-12-07T19:19:24.339Z,99238.05
2018-12-07T19:23:48.338Z,99222.34
2018-12-07T19:27:55.365Z,99207.97
2018-12-07T19:36:38.489Z,99184.33
2018-12-07T19:41:02.327Z,99159.33
2018-12-07T19:49:44.149Z,99152.12
2018-12-07T19:53:49.148Z,99183.04
2018-12-07T19:57:54.380Z,99169.19
2018-12-07T20:01:59.366Z,99171.05
2018-12-07T20:06:04.553Z,99156.31
2018-12-07T20:10:10.619Z,99167.61
2018-12-07T20:14:16.223Z,99100.07
2018-12-07T20:22:51.735Z,99110.78
2018-12-07T20:26:56.829Z,99134.70
2018-12-07T20:35:39.416Z,99143.55
2018-12-07T20:39:44.511Z,99132.23
2018-12-07T20:44:08.342Z,99108.30
2018-12-07T20:48:13.484Z,99140.95
2018-12-07T20:52:18.530Z,99122.27
2018-12-07T20:56:24.855Z,99155.36
2018-12-07T21:00:29.989Z,99136.62
2018-12-07T21:14:22.174Z,99159.41
2018-12-07T21:18:27.338Z,99086.28
2018-12-07T21:22:34.354Z,99154.50
2018-12-07T21:26:39.591Z,99194.08
2018-12-07T21:31:04.447Z,99149.72
2018-12-07T21:44:36.681Z,99088.84
2018-12-07T21:48:41.676Z,99076.73
2018-12-07T21:52:46.877Z,99073.19
2018-12-07T21:56:52.058Z,99033.19
2018-12-07T22:00:58.538Z,99027.45
2018-12-07T22:05:03.380Z,99018.41
2018-12-07T22:09:08.745Z,99031.41
2018-12-07T22:17:47.278Z,99061.73
2018-12-07T22:21:52.483Z,99089.97
2018-12-07T22:25:57.387Z,99092.68
2018-12-07T22:30:02.257Z,99111.88
2018-12-07T22:34:07.461Z,99116.25
2018-12-07T23:08:13.456Z,99101.03
2018-12-07T23:12:18.445Z,99095.77
2018-12-07T23:16:23.455Z,99102.66
2018-12-07T23:20:28.278Z,99100.05
2018-12-07T23:24:33.156Z,99099.13
2018-12-07T23:28:38.085Z,99106.04
2018-12-07T23:32:43.091Z,99109.95
2018-12-07T23:36:47.971Z,99090.80
2018-12-07T23:40:52.893Z,99085.51
2018-12-07T23:44:57.783Z,99079.79
2018-12-07T23:49:02.677Z,99084.53
2018-12-07T23:53:07.569Z,99070.16
2018-12-07T23:57:13.350Z,99075.38
